Time;durP1;ratioP1;P1;durP2;ratioP2;P2;SDS_P1;SDS_P2;PMS_P1;PMS_P2;Temp;Humidity;BMP_temperature;BMP_pressure;BME280_temperature;BME280_humidity;BME280_pressure;Samples;Min_cycle;Max_cycle;Signal;HPM_P1;HPM_P2
2021/10/12 00:00:38;;;;;;;9.45;4.63;;;28.00;93.20;;;;;;5104028;28;20312;-44
2021/10/12 00:03:11;;;;;;;7.78;4.72;;;28.00;93.10;;;;;;5103445;28;20052;-52
2021/10/12 00:05:49;;;;;;;8.65;4.90;;;28.00;93.20;;;;;;5086918;28;20091;-48
2021/10/12 00:08:17;;;;;;;9.75;5.07;;;28.00;93.20;;;;;;5103925;28;20024;-54
2021/10/12 00:10:53;;;;;;;9.52;4.60;;;28.00;93.10;;;;;;5102068;28;20058;-50
2021/10/12 00:13:22;;;;;;;7.65;4.97;;;28.00;93.10;;;;;;5102852;28;20091;-49
2021/10/12 00:15:49;;;;;;;7.32;4.60;;;28.00;93.10;;;;;;5103774;28;20072;-46
2021/10/12 00:18:21;;;;;;;9.57;4.13;;;28.00;93.10;;;;;;5103934;28;20083;-49
2021/10/12 00:20:48;;;;;;;10.57;4.32;;;27.90;93.10;;;;;;5103514;28;20085;-55
2021/10/12 00:23:16;;;;;;;6.90;3.95;;;27.90;93.10;;;;;;5103575;28;20028;-52
2021/10/12 00:25:48;;;;;;;8.73;3.75;;;28.00;93.10;;;;;;5103649;28;20069;-52
2021/10/12 00:28:20;;;;;;;6.55;3.15;;;27.90;93.10;;;;;;5085378;28;20032;-51
2021/10/12 00:30:55;;;;;;;7.72;3.38;;;27.90;93.10;;;;;;5102611;28;20051;-50
2021/10/12 00:33:28;;;;;;;6.15;3.30;;;28.00;93.10;;;;;;5107337;28;20051;-51
2021/10/12 00:36:06;;;;;;;7.07;3.58;;;27.90;93.00;;;;;;5107340;28;20208;-49
2021/10/12 00:38:33;;;;;;;14.63;3.88;;;27.90;93.00;;;;;;5106405;28;20296;-50
2021/10/12 00:41:00;;;;;;;8.07;4.30;;;27.90;93.00;;;;;;5107398;28;20051;-46
2021/10/12 00:43:27;;;;;;;7.68;4.00;;;27.90;93.00;;;;;;5107661;28;20044;-52
2021/10/12 00:45:58;;;;;;;7.50;4.75;;;27.90;93.00;;;;;;5107291;28;20031;-46
2021/10/12 00:48:26;;;;;;;10.63;4.82;;;27.90;93.00;;;;;;5107260;28;20216;-50
2021/10/12 00:50:53;;;;;;;12.05;5.40;;;27.90;93.00;;;;;;5107220;28;20020;-46
2021/10/12 00:53:20;;;;;;;13.57;7.00;;;27.90;93.00;;;;;;5107308;28;20294;-48
2021/10/12 00:55:47;;;;;;;14.57;7.32;;;27.90;93.00;;;;;;5107077;28;20024;-43
2021/10/12 00:58:15;;;;;;;15.55;6.97;;;27.90;93.00;;;;;;5105231;28;20055;-48
2021/10/12 01:00:42;;;;;;;18.02;7.35;;;27.80;92.90;;;;;;5107050;28;20237;-54
2021/10/12 01:03:11;;;;;;;22.15;7.38;;;27.80;93.00;;;;;;5107237;28;20031;-46
2021/10/12 01:05:42;;;;;;;23.85;6.25;;;27.80;93.00;;;;;;5106891;28;20027;-47
2021/10/12 01:08:08;;;;;;;22.52;6.63;;;27.80;92.90;;;;;;5107013;28;20031;-44
2021/10/12 01:10:35;;;;;;;19.38;6.30;;;27.80;92.90;;;;;;5106684;28;20328;-43
2021/10/12 01:13:03;;;;;;;34.33;7.43;;;27.80;92.90;;;;;;5106890;28;20312;-45
2021/10/12 01:15:33;;;;;;;31.52;7.43;;;27.80;92.90;;;;;;5106704;28;20327;-45
2021/10/12 01:18:01;;;;;;;47.88;8.15;;;27.80;92.90;;;;;;5107101;28;20036;-43
2021/10/12 01:20:33;;;;;;;39.63;7.22;;;27.80;92.80;;;;;;5105728;28;20380;-47
2021/10/12 01:23:00;;;;;;;37.70;6.95;;;27.80;92.80;;;;;;5106623;28;20032;-44
2021/10/12 01:25:27;;;;;;;36.67;6.97;;;27.80;92.90;;;;;;5105435;28;20082;-44
2021/10/12 01:27:54;;;;;;;41.40;6.70;;;27.80;92.80;;;;;;5088546;28;20091;-52
2021/10/12 01:30:20;;;;;;;51.05;7.28;;;27.80;92.80;;;;;;5106483;28;20023;-51
2021/10/12 01:32:47;;;;;;;44.42;6.95;;;27.80;92.90;;;;;;5106877;28;20028;-47
2021/10/12 01:35:15;;;;;;;47.65;7.00;;;27.70;92.90;;;;;;5106427;28;20020;-54
2021/10/12 01:37:42;;;;;;;46.30;7.13;;;27.80;92.90;;;;;;5106345;28;20028;-50
2021/10/12 01:40:11;;;;;;;35.90;6.22;;;27.70;92.80;;;;;;5106348;28;20044;-53
2021/10/12 01:42:39;;;;;;;33.83;5.60;;;27.70;92.90;;;;;;5106208;28;20077;-52
2021/10/12 01:45:08;;;;;;;36.38;5.82;;;27.70;92.90;;;;;;5104304;28;20085;-49
2021/10/12 01:47:38;;;;;;;34.38;5.95;;;27.70;92.90;;;;;;5103550;28;20112;-49
2021/10/12 01:50:07;;;;;;;25.55;4.03;;;27.70;92.90;;;;;;5106240;28;20019;-43
2021/10/12 01:52:34;;;;;;;28.60;4.82;;;27.70;92.90;;;;;;5106167;28;20040;-49
2021/10/12 01:55:04;;;;;;;34.95;5.57;;;27.70;92.90;;;;;;5105025;28;20245;-50
2021/10/12 01:57:31;;;;;;;27.70;5.28;;;27.70;92.90;;;;;;5105795;28;20073;-53
2021/10/12 01:59:59;;;;;;;33.35;5.07;;;27.70;92.80;;;;;;5106055;28;20024;-50
2021/10/12 02:02:25;;;;;;;47.75;5.28;;;27.70;92.80;;;;;;5106022;28;20023;-45
2021/10/12 02:04:52;;;;;;;43.83;5.28;;;27.70;92.80;;;;;;5105378;28;20301;-51
2021/10/12 02:07:19;;;;;;;37.78;4.95;;;27.70;92.80;;;;;;5105744;28;20023;-49
2021/10/12 02:09:48;;;;;;;43.08;5.38;;;27.70;92.80;;;;;;5104790;28;20026;-52
2021/10/12 02:12:14;;;;;;;39.42;4.72;;;27.70;92.80;;;;;;5104524;28;20024;-50
2021/10/12 02:14:42;;;;;;;38.33;4.68;;;27.70;92.80;;;;;;5105646;28;20029;-46
2021/10/12 02:17:09;;;;;;;32.88;4.32;;;27.70;92.80;;;;;;5105726;28;20117;-49
2021/10/12 02:19:35;;;;;;;44.72;4.97;;;27.70;92.70;;;;;;5105090;28;20031;-48
2021/10/12 02:22:02;;;;;;;37.28;4.45;;;27.70;92.70;;;;;;5105511;28;20322;-50
2021/10/12 02:24:28;;;;;;;38.40;4.00;;;27.70;92.70;;;;;;5105929;28;20032;-49
2021/10/12 02:26:57;;;;;;;30.17;4.30;;;27.70;92.70;;;;;;5105285;28;20083;-49
2021/10/12 02:29:25;;;;;;;30.85;4.30;;;27.60;92.60;;;;;;5104375;28;20047;-46
2021/10/12 02:31:52;;;;;;;33.53;4.13;;;27.60;92.60;;;;;;5105359;28;20020;-46
2021/10/12 02:34:19;;;;;;;28.92;4.65;;;27.60;92.60;;;;;;5105806;28;20239;-46
2021/10/12 02:36:45;;;;;;;24.33;4.30;;;27.60;92.60;;;;;;5104043;28;20020;-47
2021/10/12 02:39:12;;;;;;;19.95;3.10;;;27.60;92.60;;;;;;5105568;28;20028;-45
2021/10/12 02:41:38;;;;;;;19.00;3.08;;;27.60;92.50;;;;;;5105222;28;20062;-43
2021/10/12 02:44:05;;;;;;;22.25;3.80;;;27.60;92.50;;;;;;5105499;28;20077;-46
2021/10/12 02:46:32;;;;;;;17.58;2.88;;;27.60;92.50;;;;;;5105059;28;20020;-44
2021/10/12 02:48:58;;;;;;;16.42;3.00;;;27.60;92.50;;;;;;5104880;28;20032;-44
2021/10/12 02:51:25;;;;;;;16.88;3.20;;;27.60;92.50;;;;;;5103894;28;20019;-44
2021/10/12 02:53:52;;;;;;;18.60;2.90;;;27.50;92.40;;;;;;5105300;28;20186;-43
2021/10/12 02:56:18;;;;;;;17.38;2.35;;;27.50;92.40;;;;;;5103462;28;20056;-44
2021/10/12 02:58:45;;;;;;;19.35;2.78;;;27.50;92.40;;;;;;5105112;28;20208;-43
2021/10/12 03:01:11;;;;;;;12.10;2.72;;;27.50;92.40;;;;;;5104964;28;20024;-53
2021/10/12 03:03:38;;;;;;;13.45;2.33;;;27.50;92.30;;;;;;5105101;28;20027;-52
2021/10/12 03:06:05;;;;;;;11.25;2.10;;;27.50;92.30;;;;;;5104545;28;20034;-48
2021/10/12 03:08:31;;;;;;;13.30;1.90;;;27.50;92.30;;;;;;5104948;28;20073;-45
2021/10/12 03:10:58;;;;;;;13.45;2.53;;;27.50;92.30;;;;;;5104682;28;20012;-45
2021/10/12 03:13:25;;;;;;;14.90;2.22;;;27.50;92.30;;;;;;5104584;28;20027;-44
2021/10/12 03:15:51;;;;;;;8.02;2.10;;;27.50;92.30;;;;;;5104488;28;20189;-44
2021/10/12 03:18:18;;;;;;;10.32;2.15;;;27.50;92.30;;;;;;5104584;28;20099;-45
2021/10/12 03:20:45;;;;;;;11.98;3.05;;;27.50;92.30;;;;;;5104324;28;20016;-43
2021/10/12 03:23:11;;;;;;;10.18;2.17;;;27.50;92.30;;;;;;5104567;28;20203;-49
2021/10/12 03:25:38;;;;;;;9.90;2.40;;;27.40;92.30;;;;;;5104468;28;20019;-49
2021/10/12 03:28:05;;;;;;;9.00;2.80;;;27.40;92.30;;;;;;5104362;28;20032;-44
2021/10/12 03:30:31;;;;;;;8.32;2.38;;;27.40;92.30;;;;;;5104290;28;20023;-47
2021/10/12 03:32:58;;;;;;;12.32;2.80;;;27.40;92.30;;;;;;5104479;28;20031;-42
2021/10/12 03:35:33;;;;;;;10.95;2.70;;;27.40;92.30;;;;;;5104107;28;20045;-56
2021/10/12 03:38:00;;;;;;;14.05;2.45;;;27.40;92.30;;;;;;5104260;28;20034;-42
2021/10/12 03:40:27;;;;;;;7.00;2.08;;;27.40;92.30;;;;;;5104112;28;20218;-42
2021/10/12 03:42:54;;;;;;;7.60;2.70;;;27.40;92.30;;;;;;5103997;28;20062;-49
2021/10/12 03:45:21;;;;;;;7.78;2.20;;;27.40;92.30;;;;;;5104205;28;20019;-44
2021/10/12 03:47:48;;;;;;;13.65;2.35;;;27.40;92.40;;;;;;5104231;28;20028;-44
2021/10/12 03:50:15;;;;;;;11.10;2.15;;;27.40;92.40;;;;;;5103985;28;20220;-42
2021/10/12 03:52:42;;;;;;;8.63;1.92;;;27.40;92.40;;;;;;5104029;28;20032;-48
2021/10/12 03:55:09;;;;;;;10.48;2.17;;;27.40;92.40;;;;;;5104157;28;20209;-47
2021/10/12 03:57:36;;;;;;;7.15;1.90;;;27.40;92.40;;;;;;5103770;28;20052;-42
2021/10/12 04:00:05;;;;;;;10.55;2.20;;;27.40;92.40;;;;;;5104113;28;20106;-42
2021/10/12 04:02:32;;;;;;;6.43;1.98;;;27.30;92.50;;;;;;5102895;28;20032;-45
2021/10/12 04:04:58;;;;;;;8.13;2.00;;;27.30;92.50;;;;;;5103950;28;20312;-47
2021/10/12 04:07:27;;;;;;;6.07;2.30;;;27.30;92.50;;;;;;5106042;28;20323;-45
2021/10/12 04:09:54;;;;;;;10.95;2.25;;;27.30;92.50;;;;;;5108321;28;20020;-45
2021/10/12 04:12:21;;;;;;;7.97;2.10;;;27.30;92.50;;;;;;5108216;28;20097;-44
2021/10/12 04:14:47;;;;;;;7.07;2.00;;;27.30;92.50;;;;;;5108133;28;20028;-43
2021/10/12 04:17:14;;;;;;;11.55;1.92;;;27.30;92.50;;;;;;5107896;28;20023;-48
2021/10/12 04:19:41;;;;;;;4.88;1.58;;;27.30;92.50;;;;;;5107896;28;20028;-49
2021/10/12 04:22:07;;;;;;;6.20;1.70;;;27.30;92.50;;;;;;5108069;28;20020;-45
2021/10/12 04:24:36;;;;;;;11.25;1.60;;;27.30;92.50;;;;;;5107806;28;20024;-49
2021/10/12 04:27:04;;;;;;;7.78;1.83;;;27.20;92.30;;;;;;5107616;28;20085;-49
2021/10/12 04:29:31;;;;;;;6.97;1.63;;;27.20;92.30;;;;;;5107775;28;20042;-44
2021/10/12 04:31:59;;;;;;;4.90;1.17;;;27.20;92.30;;;;;;5107835;28;20020;-51
2021/10/12 04:34:27;;;;;;;8.13;1.20;;;27.20;92.20;;;;;;5108066;28;20024;-49
2021/10/12 04:36:55;;;;;;;4.50;1.35;;;27.20;92.30;;;;;;5107660;28;20028;-50
2021/10/12 04:39:21;;;;;;;5.82;1.52;;;27.20;92.20;;;;;;5108052;28;20231;-51
2021/10/12 04:41:49;;;;;;;7.95;1.02;;;27.20;92.10;;;;;;5107496;28;20023;-51
2021/10/12 04:44:16;;;;;;;7.82;1.00;;;27.20;92.10;;;;;;5107966;28;20031;-50
2021/10/12 04:46:43;;;;;;;8.02;1.20;;;27.20;92.00;;;;;;5107441;28;20217;-48
2021/10/12 04:49:10;;;;;;;7.63;1.38;;;27.20;92.00;;;;;;5107737;28;20039;-47
2021/10/12 04:51:37;;;;;;;6.57;1.08;;;27.20;91.90;;;;;;5107390;28;20347;-45
2021/10/12 04:54:04;;;;;;;4.95;1.20;;;27.20;91.90;;;;;;5107680;28;20019;-47
2021/10/12 04:56:31;;;;;;;7.95;1.25;;;27.20;91.80;;;;;;5106991;28;20056;-55
2021/10/12 04:58:57;;;;;;;6.68;1.00;;;27.20;91.70;;;;;;5107670;28;20091;-48
2021/10/12 05:01:24;;;;;;;6.32;1.08;;;27.20;91.70;;;;;;5107243;28;20095;-50
2021/10/12 05:03:51;;;;;;;5.88;1.00;;;27.10;91.60;;;;;;5107495;28;20292;-48
2021/10/12 05:06:17;;;;;;;5.85;0.77;;;27.10;91.50;;;;;;5107067;28;20027;-48
2021/10/12 05:08:44;;;;;;;5.03;0.88;;;27.10;91.50;;;;;;5107355;28;20043;-50
2021/10/12 05:11:10;;;;;;;9.27;1.02;;;27.10;91.50;;;;;;5107081;28;20012;-56
2021/10/12 05:13:37;;;;;;;10.82;1.42;;;27.10;91.50;;;;;;5107254;28;20036;-49
2021/10/12 05:16:10;;;;;;;3.70;0.60;;;27.10;91.40;;;;;;5106914;28;20095;-51
2021/10/12 05:18:39;;;;;;;6.00;1.00;;;27.10;91.40;;;;;;5106977;28;20028;-51
2021/10/12 05:21:05;;;;;;;8.98;1.38;;;27.10;91.30;;;;;;5106842;28;20016;-51
2021/10/12 05:23:32;;;;;;;9.70;1.13;;;27.10;91.30;;;;;;5107080;28;20020;-48
2021/10/12 05:25:59;;;;;;;5.15;0.93;;;27.00;91.20;;;;;;5106574;28;20020;-47
2021/10/12 05:28:26;;;;;;;6.57;0.80;;;27.00;91.20;;;;;;5106890;28;20028;-49
2021/10/12 05:30:53;;;;;;;5.57;0.73;;;27.10;91.20;;;;;;5106680;28;20008;-50
2021/10/12 05:33:20;;;;;;;5.80;0.85;;;27.00;91.20;;;;;;5106739;28;20193;-47
2021/10/12 05:35:49;;;;;;;2.28;0.80;;;27.00;91.20;;;;;;5106541;28;20016;-50
2021/10/12 05:38:18;;;;;;;7.70;0.90;;;27.00;91.10;;;;;;5106763;28;20030;-53
2021/10/12 05:40:44;;;;;;;7.25;0.75;;;27.00;91.00;;;;;;5106279;28;20042;-51
2021/10/12 05:43:11;;;;;;;6.25;1.10;;;27.00;91.00;;;;;;5106664;28;20239;-51
2021/10/12 05:45:38;;;;;;;5.32;0.80;;;27.00;91.00;;;;;;5106426;28;20016;-48
2021/10/12 05:48:07;;;;;;;8.00;1.50;;;27.00;90.90;;;;;;5106212;28;20051;-47
2021/10/12 05:50:37;;;;;;;7.57;0.65;;;26.90;90.80;;;;;;5106272;28;20027;-48
2021/10/12 05:53:21;;;;;;;6.07;0.60;;;26.90;90.90;;;;;;5106330;28;20020;-45
2021/10/12 05:55:53;;;;;;;4.65;0.60;;;26.90;90.90;;;;;;5106116;28;20012;-53
2021/10/12 06:01:21;;;;;;;5.70;0.57;;;26.90;90.70;;;;;;5072156;28;20091;-51
2021/10/12 06:03:48;;;;;;;5.05;0.68;;;26.80;90.70;;;;;;5106338;28;20055;-57
2021/10/12 06:06:14;;;;;;;5.18;0.70;;;26.90;90.60;;;;;;5105963;28;20077;-46
2021/10/12 06:08:42;;;;;;;5.72;0.63;;;26.90;90.60;;;;;;5106288;28;20031;-43
2021/10/12 06:11:10;;;;;;;7.53;0.95;;;26.80;90.40;;;;;;5105926;28;20027;-46
2021/10/12 06:13:38;;;;;;;4.82;0.70;;;26.80;90.50;;;;;;5105792;28;20028;-50
2021/10/12 06:16:05;;;;;;;3.75;0.90;;;26.80;90.40;;;;;;5105758;28;20313;-51
2021/10/12 06:18:32;;;;;;;3.17;0.60;;;26.80;90.30;;;;;;5106010;28;20061;-54
2021/10/12 06:20:59;;;;;;;10.93;0.85;;;26.80;90.30;;;;;;5105957;28;20027;-54
2021/10/12 06:23:26;;;;;;;9.02;0.73;;;26.80;90.20;;;;;;5105878;28;20282;-50
2021/10/12 06:25:52;;;;;;;5.63;0.60;;;26.80;90.10;;;;;;5105695;28;20292;-53
2021/10/12 06:28:20;;;;;;;5.10;0.52;;;26.80;90.20;;;;;;5105668;28;20322;-52
2021/10/12 06:30:47;;;;;;;5.53;0.60;;;26.80;90.20;;;;;;5104901;28;20205;-46
2021/10/12 06:33:14;;;;;;;9.38;0.98;;;26.80;90.20;;;;;;5105567;28;20020;-47
2021/10/12 06:35:41;;;;;;;5.07;0.68;;;26.80;90.10;;;;;;5105605;28;20024;-46
2021/10/12 06:38:07;;;;;;;5.38;0.50;;;26.80;90.20;;;;;;5105520;28;20217;-45
2021/10/12 06:40:35;;;;;;;8.40;0.68;;;26.80;90.10;;;;;;5105336;28;20024;-50
2021/10/12 06:43:02;;;;;;;5.88;0.52;;;26.80;90.10;;;;;;5105240;28;20027;-54
2021/10/12 06:45:29;;;;;;;3.38;0.50;;;26.80;90.20;;;;;;5105243;28;20034;-53
2021/10/12 06:47:56;;;;;;;3.53;0.40;;;26.80;90.20;;;;;;5105215;28;20024;-47
2021/10/12 06:50:24;;;;;;;5.05;0.60;;;26.70;90.20;;;;;;5105029;28;20020;-51
2021/10/12 06:52:51;;;;;;;4.13;0.60;;;26.80;90.20;;;;;;5105175;28;20192;-44
2021/10/12 06:55:18;;;;;;;4.80;0.57;;;26.70;90.20;;;;;;5104989;28;20031;-52
2021/10/12 06:57:46;;;;;;;7.03;0.70;;;26.80;90.20;;;;;;5104598;28;20222;-46
2021/10/12 07:00:15;;;;;;;1.92;0.43;;;26.80;90.20;;;;;;5104873;28;20020;-44
2021/10/12 07:02:42;;;;;;;6.38;0.80;;;26.80;90.20;;;;;;5104874;28;20099;-44
2021/10/12 07:05:11;;;;;;;6.22;0.57;;;26.70;90.20;;;;;;5104855;28;20353;-47
2021/10/12 07:07:38;;;;;;;2.60;0.40;;;26.70;90.20;;;;;;5104872;28;20028;-46
2021/10/12 07:10:06;;;;;;;2.22;0.32;;;26.70;90.20;;;;;;5104799;28;20083;-48
2021/10/12 07:12:33;;;;;;;3.28;0.57;;;26.80;90.30;;;;;;5104799;28;20028;-48
2021/10/12 07:15:00;;;;;;;6.57;0.47;;;26.70;90.20;;;;;;5104662;28;20016;-43
2021/10/12 07:17:26;;;;;;;5.38;0.50;;;26.70;90.20;;;;;;5104687;28;20020;-47
2021/10/12 07:19:53;;;;;;;5.30;0.77;;;26.70;90.20;;;;;;5104587;28;20016;-50
2021/10/12 07:22:23;;;;;;;3.80;0.60;;;26.70;90.20;;;;;;5104490;28;20079;-46
2021/10/12 07:24:51;;;;;;;5.90;0.47;;;26.70;90.20;;;;;;5104339;28;20027;-47
2021/10/12 07:27:18;;;;;;;7.97;0.60;;;26.70;90.40;;;;;;5104306;28;20095;-47
2021/10/12 07:29:46;;;;;;;4.93;0.50;;;26.70;90.20;;;;;;5104427;28;20087;-50
2021/10/12 07:32:14;;;;;;;1.73;0.45;;;26.70;90.20;;;;;;5104263;28;20020;-46
2021/10/12 07:34:41;;;;;;;4.22;0.50;;;26.70;90.20;;;;;;5104378;28;20016;-47
2021/10/12 07:37:08;;;;;;;4.43;0.60;;;26.70;90.20;;;;;;5104621;28;20203;-44
2021/10/12 07:39:34;;;;;;;5.10;0.57;;;26.70;90.20;;;;;;5104263;28;20239;-43
2021/10/12 07:42:05;;;;;;;4.30;0.50;;;26.70;90.20;;;;;;5103395;28;20096;-45
2021/10/12 07:44:32;;;;;;;2.78;0.50;;;26.60;90.10;;;;;;5104647;28;20316;-46
2021/10/12 07:46:59;;;;;;;2.53;0.40;;;26.60;90.20;;;;;;5103990;28;20024;-50
2021/10/12 07:49:25;;;;;;;3.60;0.68;;;26.70;90.20;;;;;;5104705;28;20096;-47
2021/10/12 07:51:52;;;;;;;5.25;0.77;;;26.60;90.10;;;;;;5104094;28;20295;-48
2021/10/12 07:54:25;;;;;;;5.57;0.63;;;26.60;90.20;;;;;;5104525;28;20212;-50
2021/10/12 07:56:52;;;;;;;4.45;0.55;;;26.60;90.20;;;;;;5104100;28;20101;-46
2021/10/12 07:59:19;;;;;;;6.20;0.65;;;26.60;90.20;;;;;;5104468;28;20104;-45
2021/10/12 08:01:46;;;;;;;3.00;0.35;;;26.60;90.20;;;;;;5103952;28;20016;-51
2021/10/12 08:04:12;;;;;;;4.50;0.60;;;26.60;90.20;;;;;;5104354;28;20275;-47
2021/10/12 08:06:39;;;;;;;4.55;0.60;;;26.60;90.20;;;;;;5103944;28;20269;-45
2021/10/12 08:09:06;;;;;;;6.90;0.60;;;26.60;90.30;;;;;;5104230;28;20074;-51
2021/10/12 08:11:33;;;;;;;4.13;0.63;;;26.60;90.20;;;;;;5103971;28;20016;-43
2021/10/12 08:14:03;;;;;;;5.93;0.60;;;26.60;90.30;;;;;;5104260;28;20199;-44
2021/10/12 08:16:30;;;;;;;2.65;0.40;;;26.60;90.30;;;;;;5103663;28;20069;-49
2021/10/12 08:19:02;;;;;;;4.95;0.43;;;26.60;90.30;;;;;;5104105;28;20032;-45
2021/10/12 08:21:29;;;;;;;8.27;0.60;;;26.60;90.30;;;;;;5103796;28;20043;-42
2021/10/12 08:23:58;;;;;;;5.43;0.65;;;26.60;90.30;;;;;;5103945;28;20373;-42
2021/10/12 08:26:24;;;;;;;4.35;0.50;;;26.60;90.30;;;;;;5103629;28;20028;-47
2021/10/12 08:28:51;;;;;;;4.43;0.55;;;26.50;90.30;;;;;;5104069;28;20024;-47
2021/10/12 08:31:18;;;;;;;3.55;0.47;;;26.50;90.30;;;;;;5103777;28;20380;-43
2021/10/12 08:33:45;;;;;;;3.50;0.70;;;26.50;90.20;;;;;;5103925;28;20028;-49
2021/10/12 08:36:13;;;;;;;4.45;0.88;;;26.50;90.20;;;;;;5103523;28;20020;-48
2021/10/12 08:38:41;;;;;;;17.77;1.85;;;26.50;90.20;;;;;;5103771;28;20305;-48
2021/10/12 08:41:09;;;;;;;57.88;6.13;;;26.50;90.20;;;;;;5103564;28;20052;-52
2021/10/12 08:43:38;;;;;;;55.72;5.53;;;26.50;90.30;;;;;;5103612;28;20028;-52
2021/10/12 08:46:05;;;;;;;66.55;6.20;;;26.40;90.30;;;;;;5103474;28;20020;-53
2021/10/12 08:48:35;;;;;;;62.45;5.30;;;26.40;90.40;;;;;;5103875;28;20044;-45
2021/10/12 08:51:07;;;;;;;79.10;6.90;;;26.40;90.40;;;;;;5103597;28;20020;-42
2021/10/12 08:53:34;;;;;;;61.60;6.95;;;26.40;90.40;;;;;;5106105;28;20020;-46
2021/10/12 08:56:02;;;;;;;69.72;7.57;;;26.40;90.40;;;;;;5107415;28;20020;-48
2021/10/12 08:58:29;;;;;;;79.60;8.75;;;26.40;90.40;;;;;;5107425;28;20274;-46
2021/10/12 09:01:22;;;;;;;86.82;8.40;;;26.40;90.40;;;;;;5107142;28;20057;-44
2021/10/12 09:04:02;;;;;;;110.97;10.65;;;26.50;90.50;;;;;;5103963;28;20073;-44
2021/10/12 09:06:30;;;;;;;131.45;11.70;;;26.40;90.40;;;;;;5107058;28;20059;-42
2021/10/12 09:09:07;;;;;;;133.15;12.35;;;26.40;90.50;;;;;;5107534;28;20027;-48
2021/10/12 09:11:35;;;;;;;130.88;12.50;;;26.40;90.70;;;;;;5107004;28;20024;-42
2021/10/12 09:14:04;;;;;;;121.70;10.70;;;26.40;90.50;;;;;;5107316;28;20095;-42
2021/10/12 09:16:37;;;;;;;105.95;12.05;;;26.40;90.50;;;;;;5106745;28;20350;-43
2021/10/12 09:19:06;;;;;;;119.32;11.07;;;26.40;90.50;;;;;;5107240;28;20077;-46
2021/10/12 09:21:36;;;;;;;112.25;10.10;;;26.40;90.60;;;;;;5106835;28;20057;-44
2021/10/12 09:24:11;;;;;;;116.13;11.02;;;26.40;90.60;;;;;;5107045;28;20028;-45
2021/10/12 09:26:42;;;;;;;82.22;8.73;;;26.40;90.60;;;;;;5106654;28;20027;-42
2021/10/12 09:29:23;;;;;;;86.13;8.00;;;26.40;90.60;;;;;;5106480;28;20031;-50
2021/10/12 09:31:51;;;;;;;83.28;8.32;;;26.40;90.60;;;;;;5106634;28;20016;-44
2021/10/12 09:34:19;;;;;;;64.15;7.03;;;26.40;90.60;;;;;;5107097;28;20016;-46
2021/10/12 09:36:48;;;;;;;55.00;6.00;;;26.40;90.60;;;;;;5106619;28;20032;-42
2021/10/12 09:39:38;;;;;;;52.15;6.32;;;26.40;90.60;;;;;;5107034;28;20031;-43
2021/10/12 09:42:07;;;;;;;53.50;6.43;;;26.40;90.60;;;;;;5092610;28;20028;-50
2021/10/12 09:44:35;;;;;;;45.40;4.07;;;26.40;90.60;;;;;;5106335;28;20217;-48
2021/10/12 09:47:07;;;;;;;53.58;5.22;;;26.40;90.60;;;;;;5106093;28;20086;-54
2021/10/12 09:49:34;;;;;;;42.97;4.53;;;26.30;90.60;;;;;;5106280;28;20062;-48
2021/10/12 09:52:17;;;;;;;35.38;3.70;;;26.40;90.70;;;;;;5106324;28;20091;-45
2021/10/12 09:54:48;;;;;;;;;;;26.40;90.70;;;;;;5106603;28;20016;-47
2021/10/12 09:57:20;;;;;;;25.15;3.22;;;26.30;90.70;;;;;;5105948;28;19919;-48
2021/10/12 09:59:47;;;;;;;29.77;3.30;;;26.30;90.70;;;;;;5106048;28;20053;-45
2021/10/12 10:02:22;;;;;;;26.55;3.33;;;26.30;90.70;;;;;;5106095;28;20047;-49
2021/10/12 10:04:50;;;;;;;19.48;2.13;;;26.30;90.70;;;;;;5105115;28;20361;-49
2021/10/12 10:07:21;;;;;;;18.88;2.42;;;26.30;90.70;;;;;;5105910;28;20035;-51
2021/10/12 10:09:49;;;;;;;18.33;2.10;;;26.30;90.70;;;;;;5105888;28;20204;-45
2021/10/12 10:12:16;;;;;;;21.13;2.45;;;26.30;90.70;;;;;;5105562;28;20209;-51
2021/10/12 10:14:43;;;;;;;14.95;2.35;;;26.30;90.70;;;;;;5105856;28;20030;-47
2021/10/12 10:17:10;;;;;;;15.98;2.80;;;26.30;90.70;;;;;;5105591;28;20024;-49
2021/10/12 10:19:41;;;;;;;21.45;3.15;;;26.30;90.70;;;;;;5105557;28;20030;-48
2021/10/12 10:22:08;;;;;;;11.97;2.90;;;26.30;90.70;;;;;;5105748;28;20027;-46
2021/10/12 10:24:34;;;;;;;15.45;2.35;;;26.30;90.80;;;;;;5105581;28;20024;-49
2021/10/12 10:27:01;;;;;;;15.05;2.40;;;26.30;90.80;;;;;;5105391;28;20070;-46
2021/10/12 10:29:37;;;;;;;13.15;2.45;;;26.30;90.80;;;;;;5106035;28;20020;-45
2021/10/12 10:32:23;;;;;;;14.77;2.30;;;26.30;90.80;;;;;;5105606;28;20020;-57
2021/10/12 10:35:02;;;;;;;11.23;2.22;;;26.30;90.70;;;;;;5105493;28;20055;-46
2021/10/12 10:37:30;;;;;;;11.02;1.80;;;26.20;90.70;;;;;;5105172;28;20400;-45
2021/10/12 10:40:23;;;;;;;7.88;2.00;;;26.20;90.70;;;;;;5105277;28;20036;-51
2021/10/12 10:42:51;;;;;;;15.75;2.17;;;26.30;90.70;;;;;;5105139;28;20023;-43
2021/10/12 10:45:18;;;;;;;9.90;1.73;;;26.20;90.60;;;;;;5105151;28;20327;-43
2021/10/12 10:47:45;;;;;;;9.63;1.92;;;26.20;90.60;;;;;;5105152;28;20058;-48
2021/10/12 10:50:11;;;;;;;9.13;1.85;;;26.20;90.60;;;;;;5105003;28;20020;-43
2021/10/12 10:52:43;;;;;;;8.02;1.90;;;26.20;90.60;;;;;;5105417;28;20304;-43
2021/10/12 10:55:10;;;;;;;11.18;1.38;;;26.20;90.60;;;;;;5105151;28;20023;-45
2021/10/12 10:57:38;;;;;;;8.45;1.70;;;26.20;90.60;;;;;;5104775;28;20040;-45
2021/10/12 11:00:18;;;;;;;25.50;2.40;;;26.20;90.60;;;;;;5105126;28;20020;-52
2021/10/12 11:02:46;;;;;;;8.90;1.50;;;26.20;90.60;;;;;;5104777;28;20035;-50
2021/10/12 11:05:32;;;;;;;17.65;2.10;;;26.10;90.50;;;;;;5104945;28;20324;-48
2021/10/12 11:08:14;;;;;;;12.05;2.20;;;26.10;90.50;;;;;;5104897;28;20036;-46
2021/10/12 11:10:42;;;;;;;20.58;2.70;;;26.10;90.60;;;;;;5105005;28;20008;-42
2021/10/12 11:13:09;;;;;;;21.98;2.22;;;26.10;90.70;;;;;;5104998;28;20035;-45
2021/10/12 11:15:50;;;;;;;25.20;2.40;;;26.10;90.70;;;;;;5104378;28;20204;-44
2021/10/12 11:18:16;;;;;;;18.13;2.20;;;26.10;90.70;;;;;;5104790;28;20205;-47
2021/10/12 11:20:50;;;;;;;33.83;3.22;;;26.10;90.70;;;;;;5104445;28;20016;-44
2021/10/12 11:23:29;;;;;;;20.20;2.17;;;26.10;90.70;;;;;;5104799;28;20032;-47
2021/10/12 11:26:05;;;;;;;14.30;2.28;;;26.10;90.80;;;;;;5104175;28;20023;-46
2021/10/12 11:28:35;;;;;;;15.93;2.25;;;26.10;90.80;;;;;;5104835;28;20024;-42
2021/10/12 11:31:04;;;;;;;28.80;2.60;;;26.10;90.80;;;;;;5104500;28;20308;-43
2021/10/12 11:33:45;;;;;;;16.92;2.15;;;26.10;90.80;;;;;;5104570;28;20301;-44
2021/10/12 11:36:16;;;;;;;10.82;2.00;;;26.10;90.80;;;;;;5104645;28;20020;-50
2021/10/12 11:38:55;;;;;;;13.73;2.25;;;26.10;90.90;;;;;;5104505;28;20028;-47
2021/10/12 11:41:25;;;;;;;12.73;1.90;;;26.10;90.90;;;;;;5104240;28;20039;-48
2021/10/12 11:43:55;;;;;;;10.02;2.53;;;26.10;91.00;;;;;;5104532;28;20084;-42
2021/10/12 11:46:27;;;;;;;15.07;2.20;;;26.10;91.00;;;;;;5104056;28;20030;-43
2021/10/12 11:48:56;;;;;;;18.73;3.03;;;26.10;91.00;;;;;;5104444;28;20024;-45
2021/10/12 11:51:26;;;;;;;14.52;3.40;;;26.10;91.00;;;;;;5103942;28;20020;-43
2021/10/12 11:53:55;;;;;;;15.75;4.03;;;26.10;91.00;;;;;;5104440;28;20024;-50
2021/10/12 11:56:24;;;;;;;17.05;4.20;;;26.20;91.00;;;;;;5103874;28;20020;-47
2021/10/12 11:58:58;;;;;;;14.82;3.83;;;26.20;90.90;;;;;;5103393;28;20594;-44
2021/10/12 12:01:37;;;;;;;10.48;3.50;;;26.20;90.90;;;;;;5104035;28;20031;-47
2021/10/12 12:04:05;;;;;;;11.63;2.85;;;26.20;90.90;;;;;;5104300;28;20028;-47
2021/10/12 12:06:38;;;;;;;6.97;2.53;;;26.20;90.80;;;;;;5102857;28;20032;-46
2021/10/12 12:09:26;;;;;;;7.32;2.75;;;26.20;90.80;;;;;;5104236;28;20188;-48
2021/10/12 12:11:54;;;;;;;6.45;2.65;;;26.20;90.80;;;;;;5103905;28;20047;-47
2021/10/12 12:14:24;;;;;;;8.88;3.22;;;26.30;90.80;;;;;;5104192;28;20020;-48
2021/10/12 12:17:20;;;;;;;11.63;3.08;;;26.30;90.90;;;;;;5104047;28;20083;-44
2021/10/12 12:19:52;;;;;;;6.22;2.35;;;26.30;90.90;;;;;;5103794;28;20047;-46
2021/10/12 12:22:28;;;;;;;13.25;2.80;;;26.30;90.90;;;;;;5103853;28;20024;-43
2021/10/12 12:25:07;;;;;;;7.95;2.85;;;26.30;90.90;;;;;;5103584;28;20386;-50
2021/10/12 12:27:53;;;;;;;9.48;3.08;;;26.30;91.00;;;;;;5104470;28;20028;-50
2021/10/12 12:30:30;;;;;;;9.77;3.35;;;26.30;91.00;;;;;;5106692;28;20016;-50
2021/10/12 12:32:58;;;;;;;11.75;3.35;;;26.30;91.10;;;;;;5107912;28;20059;-45
2021/10/12 12:35:25;;;;;;;12.10;3.17;;;26.40;91.30;;;;;;5107696;28;20028;-46
2021/10/12 12:38:03;;;;;;;11.85;2.97;;;26.30;91.20;;;;;;5107846;28;20020;-43
2021/10/12 12:40:32;;;;;;;14.50;2.80;;;26.40;91.40;;;;;;5107652;28;20028;-44
2021/10/12 12:43:14;;;;;;;12.90;2.25;;;26.40;91.50;;;;;;5107464;28;20024;-43
2021/10/12 12:45:40;;;;;;;;;;;26.40;91.50;;;;;;5108038;28;20091;-47
2021/10/12 12:48:07;;;;;;;9.68;2.10;;;26.40;91.50;;;;;;5107519;28;19912;-48
2021/10/12 12:50:38;;;;;;;10.77;2.13;;;26.40;91.60;;;;;;5107526;28;20039;-43
2021/10/12 12:53:08;;;;;;;7.63;1.90;;;26.40;91.70;;;;;;5107605;28;20020;-46